Terminal Aerodrome Forecast
Issued by NWS

Home | Current Version | Previous Version | Graphics & Text | Print | Product List | Glossary On
Versions: 1 2 3 4 5 6 7 8 9 10 11 12 13 14 15 16 17
000
FTUS43 KMPX 191100 RRA
TAFRNH
TAF
KRNH 191142Z 1912/2012 17009KT P6SM SCT100 BKN250
     FM191400 17012G18KT P6SM SCT060 BKN120
     FM191700 19017G24KT P6SM VCSH BKN030 OVC080
     FM192000 21012KT P6SM BKN050
     FM200800 28008KT P6SM BKN250=

USA.gov is the U.S. government's official web portal to all federal, state and local government web resources and services.